コロンボ の空港の天気 - METARとTAF

バンダラナイケ国際空港 ( VCBI / CMB ) - スリランカ コロンボ
飛行場実況気象(Metar)
観測時間04/21 04:40 IST (04/20 23:10 UTC)
風向・風速東南東 2m/s
視程9000m
天気現象
なし
気温25℃
湿度89%
気圧1008hPa
METARVCBI 202310Z 11003KT 9000 SKC 25/23 Q1008 NOSIG
過去の天気等 Google飛行場航空写真 Wunderground天気予報

過去48時間のMETAR

飛行場予報(TAF)
発表時間: 4/21 03:10 IST (4/20 21:40 UTC)
予報対象時間: 21日5時 IST ~ 22日11時 IST
風向・風速南東 3m/s
視程10km以上
少しの雲 雲底高度 550m
21日8時 IST ~ 21日10時 IST に徐々に
風向・風速西南西 5m/s
21日17時 IST ~ 21日21時 IST に 確率 30% で一時的に
視程6,000m
TAF VCBI 202140Z 2100/2206 14006KT 9999 FEW018 TX32/2107Z TN26/2200Z
BECMG 2103/2105 25010KT
PROB30 TEMPO 2112/2116 6000 -TSRA/SHRA SCT016 FEW018CB